createdAt,value
2018-06-30T00:02:25.565Z,5.45
2018-06-30T00:08:20.541Z,5.19
2018-06-30T00:14:15.607Z,4.74
2018-06-30T00:20:10.537Z,4.14
2018-06-30T00:26:05.529Z,4.48
2018-06-30T00:32:00.577Z,4.18
2018-06-30T00:37:55.576Z,4.46
2018-06-30T00:43:50.555Z,4.17
2018-06-30T00:49:45.545Z,4.19
2018-06-30T00:55:40.578Z,4.27
2018-06-30T01:01:35.563Z,4.71
2018-06-30T01:07:30.625Z,3.92
2018-06-30T01:13:25.548Z,4.56
2018-06-30T01:19:20.542Z,4.36
2018-06-30T01:25:15.549Z,4.53
2018-06-30T01:31:10.553Z,4.26
2018-06-30T01:37:05.576Z,4.75
2018-06-30T02:06:40.573Z,3.58
2018-06-30T02:06:40.795Z,4.19
2018-06-30T02:06:40.814Z,4.19
2018-06-30T02:06:40.832Z,4.19
2018-06-30T02:12:35.582Z,3.7
2018-06-30T02:18:30.632Z,3.98
2018-06-30T02:24:25.607Z,3.84
2018-06-30T02:30:20.611Z,3.84
2018-06-30T02:36:15.588Z,4.29
2018-06-30T02:42:10.610Z,4.1
2018-06-30T02:48:05.586Z,3.8
2018-06-30T02:54:00.589Z,3.91
2018-06-30T02:59:55.639Z,3.63
2018-06-30T03:05:50.618Z,3.47
2018-06-30T03:11:45.620Z,4.22
2018-06-30T03:17:40.604Z,3.16
2018-06-30T03:23:35.601Z,3.28
2018-06-30T03:29:30.672Z,4.07
2018-06-30T03:35:25.603Z,4.13
2018-06-30T03:41:20.628Z,3.45
2018-06-30T03:47:15.618Z,3.57
2018-06-30T03:53:10.614Z,3.48
2018-06-30T03:59:05.594Z,3.57
2018-06-30T04:05:00.598Z,3.52
2018-06-30T04:10:55.614Z,3.2
2018-06-30T04:16:50.648Z,3.41
2018-06-30T04:22:45.621Z,3.42
2018-06-30T04:28:40.633Z,3.15
2018-06-30T04:34:35.626Z,3.39
2018-06-30T04:40:30.701Z,3.38
2018-06-30T05:04:10.690Z,3.57
2018-06-30T05:04:10.779Z,3.58
2018-06-30T05:04:10.801Z,3.58
2018-06-30T05:04:10.836Z,3.58
2018-06-30T05:10:05.624Z,4.25
2018-06-30T05:16:00.652Z,4.27
2018-06-30T05:21:55.602Z,4.08
2018-06-30T05:27:50.665Z,4.54
2018-06-30T05:33:45.697Z,4.53
2018-06-30T05:39:40.671Z,5.41
2018-06-30T05:45:35.661Z,6.87
2018-06-30T05:51:30.698Z,7.4
2018-06-30T05:57:25.660Z,7.92
2018-06-30T06:03:20.693Z,9.84
2018-06-30T06:09:15.806Z,9.12
2018-06-30T06:15:10.777Z,11.69
2018-06-30T06:21:05.637Z,14.75
2018-06-30T06:27:00.617Z,13.36
2018-06-30T06:32:55.698Z,12.89
2018-06-30T06:38:50.639Z,12.59
2018-06-30T06:44:45.695Z,12.23
2018-06-30T06:50:40.687Z,11.76
2018-06-30T06:56:35.691Z,12.09
2018-06-30T07:02:30.662Z,11.24
2018-06-30T07:08:25.719Z,11.84
2018-06-30T07:14:20.659Z,11.29
2018-06-30T07:20:17.286Z,10.62
2018-06-30T07:26:10.682Z,9.84
2018-06-30T07:32:05.735Z,9.67
2018-06-30T07:38:00.715Z,9.59
2018-06-30T08:07:35.669Z,9.6
2018-06-30T08:07:35.813Z,11.64
2018-06-30T08:07:35.872Z,11.64
2018-06-30T08:07:35.921Z,11.64
2018-06-30T08:13:30.689Z,12.73
2018-06-30T08:19:25.740Z,9.97
2018-06-30T08:25:20.708Z,8.35
2018-06-30T08:31:15.679Z,8.83
2018-06-30T08:37:10.702Z,8.7
2018-06-30T08:43:05.737Z,8.02
2018-06-30T08:49:00.689Z,7.46
2018-06-30T08:54:55.764Z,7.56
2018-06-30T09:00:50.737Z,7.06
2018-06-30T09:06:45.696Z,7.74
2018-06-30T09:12:40.711Z,7.49
2018-06-30T09:18:35.721Z,7.47
2018-06-30T09:24:30.719Z,7.13
2018-06-30T09:30:25.775Z,6.73
2018-06-30T09:36:20.706Z,6.79
2018-06-30T09:42:15.697Z,6.47
2018-06-30T09:48:10.731Z,6.99
2018-06-30T09:54:05.747Z,5.8
2018-06-30T10:00:00.763Z,6.36
2018-06-30T10:05:55.759Z,6.42
2018-06-30T10:11:50.736Z,5.31
2018-06-30T10:17:45.702Z,4.7
2018-06-30T10:23:40.773Z,5.13
2018-06-30T10:29:35.761Z,4.67
2018-06-30T10:35:30.790Z,3.11
2018-06-30T10:41:25.747Z,2.98
2018-06-30T11:05:05.812Z,2.75
2018-06-30T11:05:06.033Z,3.93
2018-06-30T11:05:06.033Z,3.93
2018-06-30T11:05:06.071Z,3.93
2018-06-30T11:11:00.777Z,3.57
2018-06-30T11:16:55.780Z,3.5
2018-06-30T11:22:50.769Z,3.63
2018-06-30T11:28:45.750Z,3.07
2018-06-30T11:34:40.765Z,2.55
2018-06-30T11:40:35.778Z,2.41
2018-06-30T11:46:30.746Z,1.72
2018-06-30T11:52:25.756Z,2.22
2018-06-30T11:58:20.827Z,1.93
2018-06-30T12:04:15.797Z,1.83
2018-06-30T12:10:10.806Z,2.39
2018-06-30T12:16:05.796Z,2.23
2018-06-30T12:22:00.789Z,2.57
2018-06-30T12:27:55.825Z,2.14
2018-06-30T12:33:50.777Z,2.75
2018-06-30T12:39:45.794Z,2.59
2018-06-30T12:45:40.825Z,2.51
2018-06-30T12:51:35.817Z,2.77
2018-06-30T12:57:30.764Z,2.73
2018-06-30T13:03:25.827Z,2.66
2018-06-30T13:09:20.878Z,2.89
2018-06-30T13:15:15.795Z,3.27
2018-06-30T13:21:10.823Z,2.97
2018-06-30T13:27:05.792Z,3.42
2018-06-30T13:33:00.816Z,3.68
2018-06-30T13:38:55.804Z,2.86
2018-06-30T13:44:50.800Z,2.71
2018-06-30T14:08:30.845Z,2.82
2018-06-30T14:08:31.105Z,1.89
2018-06-30T14:08:31.125Z,1.89
2018-06-30T14:08:31.128Z,1.89
2018-06-30T14:14:25.882Z,2.02
2018-06-30T14:20:20.841Z,2.03
2018-06-30T14:26:15.864Z,2.22
2018-06-30T14:32:10.825Z,1.82
2018-06-30T14:38:05.861Z,1.77
2018-06-30T14:44:00.889Z,1.6
2018-06-30T14:49:55.849Z,1.78
2018-06-30T14:55:50.833Z,1.39
2018-06-30T15:01:45.857Z,2
2018-06-30T15:07:40.871Z,1.38
2018-06-30T15:13:35.854Z,1.71
2018-06-30T15:19:30.893Z,1.61
2018-06-30T15:25:25.907Z,1.27
2018-06-30T15:31:20.881Z,1.37
2018-06-30T15:37:15.869Z,1.43
2018-06-30T15:43:10.911Z,1.22
2018-06-30T15:49:05.891Z,1.21
2018-06-30T15:55:00.845Z,1.25
2018-06-30T16:00:55.925Z,1.19
2018-06-30T16:06:50.854Z,1.07
2018-06-30T16:12:45.948Z,1.06
2018-06-30T16:18:40.945Z,0.78
2018-06-30T16:24:35.945Z,0.77
2018-06-30T16:30:30.880Z,1.04
2018-06-30T16:36:25.891Z,1.07
2018-06-30T16:42:20.874Z,1.12
2018-06-30T17:06:00.953Z,1.28
2018-06-30T17:06:00.988Z,0.88
2018-06-30T17:06:01.013Z,0.88
2018-06-30T17:06:01.069Z,0.88
2018-06-30T17:11:55.935Z,1.13
2018-06-30T17:17:50.933Z,0.99
2018-06-30T17:23:45.922Z,1.05
2018-06-30T17:29:40.915Z,1.37
2018-06-30T17:35:35.929Z,1.25
2018-06-30T17:41:30.945Z,1.32
2018-06-30T17:47:25.893Z,1.68
2018-06-30T17:53:21.027Z,1.6
2018-06-30T17:59:15.962Z,2.44
2018-06-30T18:05:10.930Z,3.13
2018-06-30T18:11:06.005Z,2.1
2018-06-30T18:17:00.985Z,1.82
2018-06-30T18:22:56.027Z,2.47
2018-06-30T18:28:50.921Z,2.07
2018-06-30T18:34:45.935Z,1.8
2018-06-30T18:40:40.949Z,1.48
2018-06-30T18:46:35.966Z,1.45
2018-06-30T18:52:31.012Z,1.69
2018-06-30T18:58:26.039Z,1.83
2018-06-30T19:04:20.927Z,1.91
2018-06-30T19:10:16.103Z,1.64
2018-06-30T19:16:10.988Z,1.66
2018-06-30T19:22:05.988Z,1.67
2018-06-30T19:28:00.984Z,1.65
2018-06-30T19:33:55.966Z,1.76
2018-06-30T19:39:50.957Z,2.15
2018-06-30T19:45:45.976Z,1.85
2018-06-30T20:09:26.013Z,2.03
2018-06-30T20:09:26.067Z,1.94
2018-06-30T20:09:26.084Z,1.94
2018-06-30T20:09:26.113Z,1.94
2018-06-30T20:15:21.000Z,1.79
2018-06-30T20:21:16.002Z,2.02
2018-06-30T20:27:11.018Z,1.98
2018-06-30T20:33:06.163Z,2.06
2018-06-30T20:39:01.016Z,2.13
2018-06-30T20:44:56.060Z,2.06
2018-06-30T20:50:51.147Z,1.99
2018-06-30T20:56:45.979Z,2.12
2018-06-30T21:02:41.024Z,1.97
2018-06-30T21:08:36.046Z,2.17
2018-06-30T21:14:30.969Z,2.13
2018-06-30T21:20:25.982Z,1.85
2018-06-30T21:26:21.085Z,1.94
2018-06-30T21:32:16.038Z,2.03
2018-06-30T21:38:11.027Z,2.14
2018-06-30T21:44:06.025Z,2.3
2018-06-30T21:50:01.028Z,1.78
2018-06-30T21:55:56.008Z,2.34
2018-06-30T22:01:51.031Z,2.4
2018-06-30T22:07:46.094Z,1.78
2018-06-30T22:13:41.054Z,2.01
2018-06-30T22:19:36.030Z,1.98
2018-06-30T22:25:31.021Z,2.22
2018-06-30T22:31:26.008Z,1.92
2018-06-30T22:37:21.028Z,1.98
2018-06-30T22:43:16.047Z,2.29
2018-06-30T23:06:56.049Z,2.47
2018-06-30T23:06:56.236Z,2.11
2018-06-30T23:06:56.241Z,2.11
2018-06-30T23:06:56.259Z,2.11
2018-06-30T23:12:51.072Z,2.59
2018-06-30T23:18:46.027Z,2.47
2018-06-30T23:24:41.095Z,2.32
2018-06-30T23:30:36.050Z,2.38
2018-06-30T23:36:31.094Z,2.39
2018-06-30T23:42:26.073Z,2.17
2018-06-30T23:48:21.059Z,2.29
2018-06-30T23:54:16.056Z,2.34
